createdAt,value
2019-05-09T07:52:31.511Z,11.20
2019-05-09T07:57:56.361Z,11.80
2019-05-09T08:14:21.989Z,12.20
2019-05-09T08:19:58.121Z,12.00
2019-05-09T08:24:59.588Z,11.30
2019-05-09T08:30:22.717Z,10.40
2019-05-09T08:35:22.653Z,10.10
2019-05-09T08:41:23.343Z,9.90
2019-05-09T08:47:38.005Z,9.80
2019-05-09T08:54:11.840Z,9.60
2019-05-09T09:00:42.343Z,9.70
2019-05-09T09:05:32.671Z,9.90
2019-05-09T09:16:59.161Z,10.30
2019-05-09T09:22:09.137Z,10.30
2019-05-09T09:28:14.813Z,10.40
2019-05-09T09:34:08.148Z,10.70
2019-05-09T09:39:44.300Z,11.10
2019-05-09T09:51:27.473Z,12.00
2019-05-09T09:57:09.616Z,12.60
2019-05-09T10:02:10.941Z,13.30
2019-05-09T10:07:12.989Z,13.60
2019-05-09T10:12:11.802Z,13.50
2019-05-09T10:17:31.843Z,13.30
2019-05-09T10:22:44.561Z,13.70
2019-05-09T10:27:41.790Z,14.20
2019-05-09T10:32:52.814Z,14.80
2019-05-09T10:38:10.679Z,14.90
2019-05-09T10:43:39.215Z,15.10
2019-05-09T10:48:47.935Z,15.40
2019-05-09T10:53:52.688Z,15.40
2019-05-09T10:58:51.644Z,15.70
2019-05-09T11:03:59.020Z,15.90
2019-05-09T11:08:58.412Z,15.50
2019-05-09T11:13:53.788Z,15.10
2019-05-09T11:18:51.962Z,14.80
2019-05-09T11:23:48.865Z,15.10
2019-05-09T11:28:47.255Z,15.20
2019-05-09T11:33:42.992Z,15.50
2019-05-09T11:38:43.683Z,16.20
2019-05-09T11:43:39.085Z,17.00
2019-05-09T11:48:35.045Z,17.70
2019-05-09T11:53:31.106Z,17.10
2019-05-09T11:58:28.003Z,17.10
2019-05-09T12:03:26.703Z,17.10
2019-05-09T12:08:22.764Z,16.30
2019-05-09T12:13:18.767Z,15.50
2019-05-09T12:18:14.539Z,15.30
2019-05-09T12:23:10.272Z,15.50
2019-05-09T12:28:07.870Z,15.60
2019-05-09T12:33:08.329Z,15.70
2019-05-09T12:38:08.201Z,15.90
2019-05-09T12:43:02.381Z,15.80
2019-05-09T12:48:09.991Z,15.90
2019-05-09T12:52:57.959Z,15.90
2019-05-09T12:57:53.420Z,15.80
2019-05-09T13:02:49.341Z,15.90
2019-05-09T13:07:45.201Z,16.00
2019-05-09T13:12:44.133Z,16.00
2019-05-09T13:17:45.286Z,16.10
2019-05-09T13:22:43.517Z,16.20
2019-05-09T13:27:39.409Z,16.40
2019-05-09T13:32:37.373Z,16.30
2019-05-09T13:37:38.233Z,16.10
2019-05-09T13:42:33.535Z,15.90
2019-05-09T13:47:29.333Z,15.70
2019-05-09T13:52:27.271Z,15.60
2019-05-09T13:57:22.693Z,15.70
2019-05-09T14:02:19.019Z,15.70
2019-05-09T14:13:53.979Z,16.10
2019-05-09T14:38:13.501Z,16.00
2019-05-09T14:43:09.863Z,15.80
2019-05-09T14:48:08.019Z,15.90
2019-05-09T14:53:03.261Z,15.90
2019-05-09T14:57:58.991Z,16.00
2019-05-09T15:02:58.212Z,15.90
2019-05-09T15:07:59.966Z,15.40
2019-05-09T15:12:58.372Z,14.80
2019-05-09T15:17:53.244Z,14.40
2019-05-09T15:22:51.514Z,14.30
2019-05-09T15:27:47.810Z,14.40
2019-05-09T15:32:43.737Z,14.40
2019-05-09T15:37:39.528Z,14.50
2019-05-09T15:42:35.472Z,14.60
2019-05-09T15:47:34.431Z,14.60
2019-05-09T15:52:30.288Z,14.70
2019-05-09T15:57:27.558Z,14.80
2019-05-09T16:02:23.487Z,14.80
2019-05-09T16:07:19.384Z,14.80
2019-05-09T16:12:15.313Z,14.80
2019-05-09T16:17:11.068Z,14.90
2019-05-09T16:22:07.994Z,14.80
2019-05-09T16:27:03.933Z,14.70
2019-05-09T16:31:59.868Z,14.70
2019-05-09T16:36:58.256Z,14.70
2019-05-09T16:41:54.865Z,14.60
2019-05-09T16:46:54.288Z,14.50
2019-05-09T16:51:50.096Z,14.50
2019-05-09T16:56:46.017Z,14.20
2019-05-09T17:01:49.231Z,14.10
2019-05-09T17:06:44.327Z,13.90
2019-05-09T17:11:40.543Z,13.70
2019-05-09T17:16:37.623Z,13.60
2019-05-09T17:22:01.373Z,13.60
2019-05-09T17:26:58.103Z,13.60
2019-05-09T17:31:55.087Z,13.40
2019-05-09T17:36:52.517Z,13.00
2019-05-09T17:41:48.724Z,12.60
2019-05-09T17:46:44.758Z,12.30
2019-05-09T17:51:40.816Z,12.10
2019-05-09T17:56:37.891Z,11.90
2019-05-09T18:01:34.085Z,11.70
2019-05-09T18:06:30.262Z,11.50
2019-05-09T18:11:26.072Z,11.50
2019-05-09T18:16:21.945Z,11.40
2019-05-09T18:21:17.948Z,11.50
2019-05-09T18:26:13.865Z,11.50
2019-05-09T18:31:09.754Z,11.50
2019-05-09T18:36:05.891Z,11.50
2019-05-09T18:41:07.227Z,11.40
2019-05-09T18:46:10.667Z,11.10
2019-05-09T18:51:06.471Z,11.10
2019-05-09T18:56:02.475Z,11.20
2019-05-09T19:00:58.399Z,11.20
2019-05-09T19:05:56.666Z,11.10
2019-05-09T19:10:52.712Z,10.90
2019-05-09T19:16:25.650Z,10.90
2019-05-09T19:21:35.464Z,10.80
2019-05-09T19:26:37.218Z,10.80
2019-05-09T19:31:33.248Z,10.80
2019-05-09T19:36:35.676Z,10.80
2019-05-09T19:41:31.875Z,10.70
2019-05-09T19:46:27.944Z,10.70
2019-05-09T19:51:23.786Z,10.70
2019-05-09T19:56:19.592Z,10.70
2019-05-09T20:01:16.357Z,10.70
2019-05-09T20:06:12.355Z,10.70
2019-05-09T20:11:33.107Z,10.60
2019-05-09T20:16:29.165Z,10.60
2019-05-09T20:21:25.250Z,10.60
2019-05-09T20:26:22.239Z,10.70
2019-05-09T20:31:18.035Z,10.80
2019-05-09T20:36:15.117Z,10.80
2019-05-09T20:41:16.142Z,10.80
2019-05-09T20:46:12.811Z,10.70
2019-05-09T20:51:08.846Z,10.70
2019-05-09T20:56:04.855Z,10.70
2019-05-09T21:01:01.883Z,10.60
2019-05-09T21:05:57.819Z,10.80
2019-05-09T21:10:53.755Z,10.80
2019-05-09T21:15:49.692Z,10.70
2019-05-09T21:20:51.833Z,10.70
2019-05-09T21:25:49.435Z,10.70
2019-05-09T21:30:45.616Z,10.60
2019-05-09T21:35:41.387Z,10.60
2019-05-09T21:40:37.169Z,10.60
2019-05-09T21:45:33.069Z,10.50
2019-05-09T21:50:28.939Z,10.50
2019-05-09T21:55:24.930Z,10.40
2019-05-09T22:00:28.403Z,10.30
